createdAt,value
2022-11-13T00:02:16.893Z,29.33
2022-11-13T00:05:22.589Z,24.77
2022-11-13T00:08:28.245Z,29.67
2022-11-13T00:11:35.231Z,27.77
2022-11-13T00:14:40.538Z,25.63
2022-11-13T00:17:45.783Z,28.40
2022-11-13T00:20:51.565Z,21.57
2022-11-13T00:23:58.116Z,23.67
2022-11-13T00:27:05.000Z,22.83
2022-11-13T00:30:16.321Z,26.10
2022-11-13T00:33:45.543Z,23.20
2022-11-13T00:36:50.008Z,27.60
2022-11-13T00:39:59.497Z,24.93
2022-11-13T00:43:06.428Z,26.57
2022-11-13T00:46:12.434Z,27.27
2022-11-13T00:49:18.047Z,26.80
2022-11-13T00:52:23.864Z,25.67
2022-11-13T00:55:29.499Z,29.40
2022-11-13T00:58:36.521Z,23.40
2022-11-13T01:01:42.416Z,22.40
2022-11-13T01:04:47.960Z,26.97
2022-11-13T01:07:53.659Z,28.00
2022-11-13T01:10:59.015Z,29.20
2022-11-13T01:14:06.139Z,22.80
2022-11-13T01:17:11.694Z,26.73
2022-11-13T01:20:17.633Z,23.70
2022-11-13T01:23:23.156Z,21.50
2022-11-13T01:26:31.371Z,19.17
2022-11-13T01:29:38.753Z,22.63
2022-11-13T01:32:44.224Z,25.17
2022-11-13T01:35:50.008Z,23.40
2022-11-13T01:38:56.470Z,20.83
2022-11-13T01:42:02.372Z,20.50
2022-11-13T01:45:40.297Z,18.77
2022-11-13T01:48:51.574Z,21.10
2022-11-13T01:52:00.065Z,17.17
2022-11-13T01:55:10.076Z,18.43
2022-11-13T01:58:16.103Z,16.87
2022-11-13T02:01:21.563Z,26.30
2022-11-13T02:04:30.120Z,22.93
2022-11-13T02:07:35.956Z,22.67
2022-11-13T02:10:41.635Z,23.33
2022-11-13T02:13:48.195Z,22.33
2022-11-13T02:16:57.662Z,21.63
2022-11-13T02:20:06.940Z,25.67
2022-11-13T02:23:18.546Z,20.17
2022-11-13T02:26:27.703Z,19.63
2022-11-13T02:29:33.353Z,23.93
2022-11-13T02:32:43.741Z,20.00
2022-11-13T02:35:49.375Z,17.23
2022-11-13T02:38:57.704Z,17.67
2022-11-13T02:42:04.437Z,18.93
2022-11-13T02:45:11.509Z,16.80
2022-11-13T02:48:17.165Z,15.90
2022-11-13T02:51:23.126Z,17.03
2022-11-13T02:54:28.795Z,14.57
2022-11-13T02:57:35.849Z,18.83
2022-11-13T03:00:40.958Z,13.37
2022-11-13T03:03:57.436Z,16.40
2022-11-13T03:07:04.169Z,18.30
2022-11-13T03:10:11.707Z,16.10
2022-11-13T03:13:19.023Z,17.13
2022-11-13T03:16:24.428Z,12.47
2022-11-13T03:19:30.123Z,13.10
2022-11-13T03:22:35.555Z,13.73
2022-11-13T03:25:41.136Z,12.20
2022-11-13T03:28:48.030Z,11.77
2022-11-13T03:31:53.501Z,13.00
2022-11-13T03:34:59.272Z,15.50
2022-11-13T03:38:05.038Z,18.37
2022-11-13T03:41:10.444Z,16.27
2022-11-13T03:44:16.992Z,12.13
2022-11-13T03:47:23.027Z,13.83
2022-11-13T03:50:28.888Z,15.27
2022-11-13T03:53:34.543Z,16.00
2022-11-13T03:56:39.708Z,14.07
2022-11-13T03:59:46.195Z,14.80
2022-11-13T04:02:51.988Z,16.10
2022-11-13T04:05:57.192Z,14.30
2022-11-13T04:09:02.478Z,11.00
2022-11-13T04:12:07.947Z,12.40
2022-11-13T04:15:14.811Z,12.30
2022-11-13T04:18:20.519Z,14.77
2022-11-13T04:21:26.132Z,18.47
2022-11-13T04:24:32.328Z,15.20
2022-11-13T04:27:37.943Z,13.40
2022-11-13T04:30:44.677Z,16.20
2022-11-13T04:33:50.364Z,13.43
2022-11-13T04:36:55.624Z,11.57
2022-11-13T04:40:00.788Z,19.20
2022-11-13T04:43:05.449Z,16.73
2022-11-13T04:46:12.262Z,12.83
2022-11-13T04:49:18.120Z,14.83
2022-11-13T04:52:25.201Z,20.67
2022-11-13T04:55:31.097Z,18.87
2022-11-13T04:58:36.673Z,17.13
2022-11-13T05:01:43.937Z,10.77
2022-11-13T05:04:49.364Z,13.90
2022-11-13T05:07:55.063Z,12.30
2022-11-13T05:11:03.810Z,15.37
2022-11-13T05:14:12.151Z,20.37
2022-11-13T05:17:19.037Z,13.50
2022-11-13T05:20:24.839Z,15.20
2022-11-13T05:23:30.704Z,13.57
2022-11-13T05:26:39.203Z,12.17
2022-11-13T05:29:44.801Z,18.67
2022-11-13T05:32:53.168Z,14.03
2022-11-13T05:36:02.667Z,14.47
2022-11-13T05:39:08.774Z,17.57
2022-11-13T05:42:14.313Z,13.73
2022-11-13T05:45:20.028Z,15.83
2022-11-13T05:48:27.335Z,18.03
2022-11-13T05:51:34.974Z,16.90
2022-11-13T05:54:40.816Z,17.17
2022-11-13T05:57:46.520Z,16.80
2022-11-13T06:00:52.309Z,14.90
2022-11-13T06:04:01.163Z,13.17
2022-11-13T06:07:06.880Z,10.43
2022-11-13T06:10:13.588Z,9.27
2022-11-13T06:13:19.067Z,9.10
2022-11-13T06:16:33.961Z,7.90
2022-11-13T06:19:41.207Z,10.13
2022-11-13T06:22:49.295Z,11.37
2022-11-13T06:26:02.665Z,13.20
2022-11-13T06:29:12.458Z,10.97
2022-11-13T06:32:19.287Z,15.90
2022-11-13T06:35:27.630Z,9.13
2022-11-13T06:38:36.658Z,11.90
2022-11-13T06:41:43.872Z,10.57
2022-11-13T06:44:50.660Z,11.83
2022-11-13T06:47:57.733Z,10.63
2022-11-13T06:51:07.555Z,13.33
2022-11-13T06:54:14.277Z,12.87
2022-11-13T06:57:21.420Z,9.13
2022-11-13T07:00:32.262Z,9.67
2022-11-13T07:03:43.083Z,10.77
2022-11-13T07:06:49.990Z,7.67
2022-11-13T07:09:55.684Z,7.57
2022-11-13T07:13:01.727Z,6.00
2022-11-13T07:16:16.216Z,8.47
2022-11-13T07:19:22.915Z,8.43
2022-11-13T07:22:31.646Z,9.60
2022-11-13T07:25:37.108Z,9.90
2022-11-13T07:28:42.713Z,13.00
2022-11-13T07:31:48.118Z,11.27
2022-11-13T07:34:53.890Z,8.63
2022-11-13T07:38:01.107Z,11.13
2022-11-13T07:41:06.890Z,8.47
2022-11-13T07:44:21.964Z,9.97
2022-11-13T07:47:37.732Z,27.20
2022-11-13T07:50:43.297Z,11.90
2022-11-13T07:53:50.648Z,10.83
2022-11-13T07:56:56.512Z,7.73
2022-11-13T08:00:02.182Z,10.37
2022-11-13T08:03:09.073Z,10.27
2022-11-13T08:06:14.638Z,8.50
2022-11-13T08:09:22.418Z,8.13
2022-11-13T08:12:27.988Z,7.80
2022-11-13T08:15:34.300Z,8.63
2022-11-13T08:18:39.944Z,7.20
2022-11-13T08:21:45.793Z,7.43
2022-11-13T08:24:53.828Z,7.10
2022-11-13T08:27:59.730Z,8.53
2022-11-13T08:31:05.826Z,13.40
2022-11-13T08:34:11.443Z,11.23
2022-11-13T08:37:17.217Z,11.37
2022-11-13T08:40:24.248Z,15.87
2022-11-13T08:43:30.462Z,10.83
2022-11-13T08:46:36.045Z,12.30
2022-11-13T08:49:42.019Z,12.23
2022-11-13T08:52:47.829Z,14.53
2022-11-13T08:55:54.844Z,15.90
2022-11-13T08:59:00.710Z,15.63
2022-11-13T09:02:06.485Z,17.03
2022-11-13T09:05:12.498Z,19.00
2022-11-13T09:08:18.039Z,19.20
2022-11-13T09:11:27.787Z,23.20
2022-11-13T09:14:33.289Z,24.70
2022-11-13T09:17:39.037Z,21.77
2022-11-13T09:20:45.053Z,19.53
2022-11-13T09:23:50.879Z,22.60
2022-11-13T09:26:57.635Z,21.50
2022-11-13T09:30:03.642Z,25.17
2022-11-13T09:33:09.057Z,31.73
2022-11-13T09:36:17.441Z,26.03
2022-11-13T09:39:23.228Z,31.03
2022-11-13T09:42:31.334Z,29.93
2022-11-13T09:45:36.942Z,31.43
2022-11-13T09:48:48.083Z,25.77
2022-11-13T09:51:59.767Z,24.17
2022-11-13T09:55:12.650Z,25.70
2022-11-13T09:58:27.079Z,29.63
2022-11-13T10:01:42.642Z,26.60
2022-11-13T10:04:58.629Z,27.33
2022-11-13T10:08:09.098Z,24.27
2022-11-13T10:11:23.488Z,26.93
2022-11-13T10:14:33.361Z,31.73
2022-11-13T10:17:42.948Z,27.93
2022-11-13T10:20:51.266Z,28.27
2022-11-13T10:23:58.071Z,37.87
2022-11-13T10:27:03.685Z,29.27
2022-11-13T10:30:17.323Z,30.67
2022-11-13T10:33:25.793Z,26.73
2022-11-13T10:36:39.179Z,29.50
2022-11-13T10:39:45.476Z,32.03
2022-11-13T10:42:51.860Z,100.30
2022-11-13T10:46:00.504Z,29.40
2022-11-13T10:49:14.081Z,26.50
2022-11-13T10:52:22.088Z,26.20
2022-11-13T10:55:39.640Z,30.73
2022-11-13T10:58:45.649Z,29.33
2022-11-13T11:01:52.556Z,29.97
2022-11-13T11:05:06.855Z,25.67
2022-11-13T11:08:15.750Z,30.77
2022-11-13T11:11:40.202Z,29.77
2022-11-13T11:15:19.930Z,27.10
2022-11-13T11:18:31.888Z,27.50
2022-11-13T11:21:39.838Z,27.23
2022-11-13T11:24:56.524Z,32.17
2022-11-13T11:28:09.133Z,28.93
2022-11-13T11:31:32.180Z,34.30
2022-11-13T11:34:45.270Z,27.10
2022-11-13T11:37:56.781Z,25.97
2022-11-13T11:41:14.967Z,29.53
2022-11-13T11:44:27.771Z,30.87
2022-11-13T11:47:34.749Z,29.97
2022-11-13T11:50:50.671Z,29.63
2022-11-13T11:54:06.887Z,31.73
2022-11-13T11:57:27.416Z,32.27
2022-11-13T12:00:34.146Z,29.33
2022-11-13T12:03:57.036Z,25.67
2022-11-13T12:07:19.042Z,23.73
2022-11-13T12:10:31.307Z,29.80
2022-11-13T12:13:46.819Z,27.53
2022-11-13T12:17:16.014Z,27.50
2022-11-13T12:20:32.160Z,23.87
2022-11-13T12:23:56.040Z,26.03
2022-11-13T12:27:21.877Z,33.83
2022-11-13T12:30:37.619Z,27.03
2022-11-13T12:33:48.555Z,25.07
2022-11-13T12:36:55.591Z,28.00
2022-11-13T12:40:14.156Z,25.87
2022-11-13T12:43:58.033Z,24.83
2022-11-13T12:47:04.238Z,21.43
2022-11-13T12:50:32.051Z,26.00
2022-11-13T12:53:48.896Z,19.60
2022-11-13T12:57:17.412Z,20.33
2022-11-13T13:00:26.697Z,22.80
2022-11-13T13:03:46.010Z,25.93
2022-11-13T13:07:03.312Z,22.47
2022-11-13T13:10:17.421Z,22.60
2022-11-13T13:13:32.228Z,21.70
2022-11-13T13:16:38.097Z,21.03
2022-11-13T13:19:44.677Z,17.70
2022-11-13T13:22:59.334Z,20.93
2022-11-13T13:26:18.411Z,22.50
2022-11-13T13:29:27.607Z,25.57
2022-11-13T13:32:52.529Z,25.53
2022-11-13T13:36:11.300Z,21.73
2022-11-13T13:39:29.807Z,25.17
2022-11-13T13:42:52.969Z,26.77
2022-11-13T13:46:10.250Z,26.67
2022-11-13T13:49:18.810Z,23.57
2022-11-13T13:52:30.865Z,27.33
2022-11-13T13:55:40.384Z,24.60
2022-11-13T13:58:46.641Z,27.27
2022-11-13T14:01:59.229Z,24.80
2022-11-13T14:05:25.373Z,23.57
2022-11-13T14:08:31.940Z,22.23
2022-11-13T14:11:37.508Z,28.10
2022-11-13T14:14:42.724Z,28.17
2022-11-13T14:17:50.162Z,27.57
2022-11-13T14:20:58.502Z,29.83
2022-11-13T14:24:05.583Z,30.50
2022-11-13T14:27:16.923Z,28.93
2022-11-13T14:30:25.626Z,24.17
2022-11-13T14:33:36.526Z,28.43
2022-11-13T14:36:42.544Z,33.20
2022-11-13T14:39:49.467Z,29.63
2022-11-13T14:42:58.716Z,28.07
2022-11-13T14:46:05.792Z,28.27
2022-11-13T14:49:16.472Z,32.40
2022-11-13T14:52:24.940Z,27.37
2022-11-13T14:55:32.687Z,26.80
2022-11-13T14:58:43.841Z,32.80
2022-11-13T15:01:55.151Z,30.50
2022-11-13T15:05:02.341Z,34.57
2022-11-13T15:08:08.550Z,32.23
2022-11-13T15:11:16.336Z,31.00
2022-11-13T15:14:22.968Z,34.77
2022-11-13T15:17:28.944Z,35.57
2022-11-13T15:20:36.052Z,39.10
2022-11-13T15:23:41.637Z,42.73
2022-11-13T15:26:47.544Z,37.50
2022-11-13T15:29:53.336Z,33.13
2022-11-13T15:33:00.998Z,33.27
2022-11-13T15:36:11.415Z,32.80
2022-11-13T15:39:23.425Z,31.60
2022-11-13T15:42:32.997Z,33.73
2022-11-13T15:45:43.842Z,38.50
2022-11-13T15:48:50.649Z,34.17
2022-11-13T15:51:57.644Z,32.70
2022-11-13T15:55:04.887Z,34.60
2022-11-13T15:58:16.869Z,36.83
2022-11-13T16:01:22.628Z,31.27
2022-11-13T16:04:44.068Z,33.63
2022-11-13T16:07:55.098Z,34.83
2022-11-13T16:11:00.855Z,35.37
2022-11-13T16:14:06.357Z,32.60
2022-11-13T16:17:14.057Z,37.33
2022-11-13T16:20:20.030Z,35.37
2022-11-13T16:23:27.283Z,36.90
2022-11-13T16:26:33.368Z,34.67
2022-11-13T16:29:38.973Z,36.50
2022-11-13T16:32:44.355Z,33.57
2022-11-13T16:35:50.612Z,38.47
2022-11-13T16:38:57.355Z,44.10
2022-11-13T16:42:03.356Z,35.83
2022-11-13T16:45:09.603Z,36.77
2022-11-13T16:48:16.777Z,47.63
2022-11-13T16:51:22.591Z,40.00
2022-11-13T16:54:30.044Z,40.80
2022-11-13T16:57:35.378Z,37.43
2022-11-13T17:00:41.130Z,36.23
2022-11-13T17:03:47.201Z,33.73
2022-11-13T17:06:56.585Z,31.83
2022-11-13T17:10:29.800Z,34.40
2022-11-13T17:13:31.277Z,29.70
2022-11-13T17:16:36.896Z,32.40
2022-11-13T17:19:44.195Z,30.60
2022-11-13T17:22:49.582Z,31.87
2022-11-13T17:25:56.570Z,30.80
2022-11-13T17:29:02.138Z,37.33
2022-11-13T17:32:07.732Z,28.63
2022-11-13T17:35:13.986Z,33.83
2022-11-13T17:38:19.634Z,33.33
2022-11-13T17:41:26.797Z,26.90
2022-11-13T17:44:31.965Z,30.33
2022-11-13T17:47:36.913Z,27.50
2022-11-13T17:50:42.565Z,30.70
2022-11-13T17:53:47.730Z,32.53
2022-11-13T17:56:54.854Z,33.43
2022-11-13T18:00:00.570Z,29.57
2022-11-13T18:03:05.734Z,34.33
2022-11-13T18:06:13.699Z,32.83
2022-11-13T18:09:20.864Z,30.73
2022-11-13T18:12:27.941Z,36.50
2022-11-13T18:15:36.330Z,31.10
2022-11-13T18:18:42.033Z,32.50
2022-11-13T18:21:47.993Z,39.30
2022-11-13T18:24:55.511Z,32.07
2022-11-13T18:28:02.882Z,28.43
2022-11-13T18:31:08.942Z,28.40
2022-11-13T18:34:17.153Z,31.57
2022-11-13T18:37:22.469Z,30.17
2022-11-13T18:40:29.803Z,29.03
2022-11-13T18:43:37.142Z,29.13
2022-11-13T18:46:42.736Z,34.53
2022-11-13T18:49:48.232Z,29.23
2022-11-13T18:52:56.347Z,34.43
2022-11-13T18:56:02.528Z,25.83
2022-11-13T18:59:10.527Z,31.33
2022-11-13T19:02:16.142Z,29.63
2022-11-13T19:05:21.671Z,26.97
2022-11-13T19:08:27.435Z,27.40
2022-11-13T19:11:34.485Z,31.83
2022-11-13T19:14:41.709Z,26.30
2022-11-13T19:17:52.600Z,27.90
2022-11-13T19:20:58.528Z,34.43
2022-11-13T19:24:06.019Z,29.90
2022-11-13T19:27:11.486Z,32.47
2022-11-13T19:30:18.977Z,26.27
2022-11-13T19:33:24.393Z,32.07
2022-11-13T19:36:31.921Z,28.67
2022-11-13T19:39:37.588Z,29.30
2022-11-13T19:42:43.193Z,31.60
2022-11-13T19:45:50.083Z,31.20
2022-11-13T19:48:55.732Z,32.03
2022-11-13T19:52:01.390Z,34.30
2022-11-13T19:55:07.278Z,33.20
2022-11-13T19:58:14.238Z,30.90
2022-11-13T20:01:30.572Z,28.17
2022-11-13T20:04:36.861Z,30.83
2022-11-13T20:07:45.008Z,28.90
2022-11-13T20:10:51.735Z,32.37
2022-11-13T20:13:59.626Z,31.40
2022-11-13T20:17:08.683Z,34.30
2022-11-13T20:20:14.290Z,27.73
2022-11-13T20:23:19.710Z,30.73
2022-11-13T20:26:25.960Z,32.57
2022-11-13T20:29:32.939Z,31.40
2022-11-13T20:32:41.367Z,29.73
2022-11-13T20:35:54.855Z,32.37
2022-11-13T20:39:02.492Z,31.53
2022-11-13T20:42:10.994Z,28.37
2022-11-13T20:45:20.429Z,28.73
2022-11-13T20:48:27.606Z,31.37
2022-11-13T20:51:33.681Z,30.90
2022-11-13T20:54:38.980Z,31.13
2022-11-13T20:57:44.587Z,33.47
2022-11-13T21:00:50.307Z,40.63
2022-11-13T21:04:06.863Z,29.53
2022-11-13T21:07:13.893Z,34.77
2022-11-13T21:10:20.033Z,31.63
2022-11-13T21:13:27.926Z,32.37
2022-11-13T21:16:35.601Z,37.23
2022-11-13T21:19:44.342Z,37.53
2022-11-13T21:22:51.995Z,34.93
2022-11-13T21:26:03.329Z,39.57
2022-11-13T21:29:08.933Z,40.43
2022-11-13T21:32:16.659Z,32.67
2022-11-13T21:35:27.146Z,45.70
2022-11-13T21:38:34.751Z,37.17
2022-11-13T21:41:43.252Z,40.13
2022-11-13T21:44:50.591Z,38.67
2022-11-13T21:47:58.281Z,44.80
2022-11-13T21:51:08.205Z,41.20
2022-11-13T21:54:17.063Z,46.53
2022-11-13T21:57:24.270Z,41.63
2022-11-13T22:00:31.486Z,42.97
2022-11-13T22:03:40.126Z,43.20
2022-11-13T22:06:51.724Z,44.50
2022-11-13T22:09:57.190Z,56.33
2022-11-13T22:13:02.983Z,48.53
2022-11-13T22:16:13.404Z,51.83
2022-11-13T22:19:28.381Z,53.80
2022-11-13T22:22:39.153Z,62.33
2022-11-13T22:25:46.268Z,51.13
2022-11-13T22:28:54.401Z,49.00
2022-11-13T22:32:01.914Z,55.20
2022-11-13T22:35:08.669Z,54.67
2022-11-13T22:38:15.182Z,54.33
2022-11-13T22:41:23.555Z,58.03
2022-11-13T22:44:54.321Z,62.60
2022-11-13T22:47:59.843Z,54.33
2022-11-13T22:51:16.496Z,72.80
2022-11-13T22:54:24.133Z,64.37
2022-11-13T22:57:29.837Z,54.97
2022-11-13T23:00:38.667Z,62.43
2022-11-13T23:03:48.731Z,72.30
2022-11-13T23:06:54.484Z,70.90
2022-11-13T23:10:01.458Z,64.93
2022-11-13T23:13:06.994Z,57.90
2022-11-13T23:16:12.842Z,64.50
2022-11-13T23:19:20.912Z,62.53
2022-11-13T23:22:26.144Z,65.93
2022-11-13T23:25:34.931Z,62.13
2022-11-13T23:28:40.975Z,64.33
2022-11-13T23:31:46.707Z,72.40
2022-11-13T23:34:59.000Z,64.10
2022-11-13T23:38:05.405Z,62.50
2022-11-13T23:41:12.534Z,57.03
2022-11-13T23:44:17.874Z,66.20
2022-11-13T23:47:26.579Z,74.10
2022-11-13T23:50:32.255Z,75.57
2022-11-13T23:53:38.080Z,68.10
2022-11-13T23:56:44.891Z,77.00
2022-11-13T23:59:51.825Z,74.30
